METAR Data
IDs: Format: Raw Decoded Include TAF

Data at: 2107 UTC 24 Mar 2019

KPSX 242053Z AUTO 15012KT 10SM BKN028 OVC036 24/21 A3006 RMK AO2 SLP179 T02440211 56016
KPSX 241953Z AUTO 15014G20KT 10SM BKN055 26/21 A3006 RMK AO2 SLP179 T02560206
KPSX 241853Z AUTO 15015KT 10SM OVC055 25/21 A3008 RMK AO2 SLP185 T02500206
KPSX 241753Z AUTO 16012KT 10SM FEW043 OVC055 24/21 A3011 RMK AO2 SLP194 T02440206 10244 20156 58001
KPSX 241653Z AUTO 16012KT 10SM OVC050 24/21 A3012 RMK AO2 SLP197 T02390206
KPSX 241553Z AUTO 16013KT 10SM CLR 24/21 A3013 RMK AO2 SLP200 T02440206
KPSX 241453Z AUTO 14012KT 10SM CLR 23/21 A3011 RMK AO2 SLP196 T02280206 51012
KPSX 241404Z AUTO 14009KT 8SM SCT029 22/21 A3010 RMK AO2 T02170206
KPSX 241353Z AUTO 14007KT 8SM FEW020 BKN029 BKN060 21/21 A3010 RMK AO2 SLP191 T02110206
KPSX 241314Z AUTO 09003KT 5SM BR BKN021 OVC035 18/18 A3010 RMK AO2 T01830183
KPSX 241306Z AUTO 08004KT 5SM BR SCT021 BKN034 OVC060 18/18 A3010 RMK AO2 T01830183
KPSX 241253Z AUTO 06003KT 4SM BR BKN021 OVC034 18/18 A3010 RMK AO2 SLP191 T01780178
KPSX 241218Z AUTO 06005KT 6SM BR FEW021 SCT035 OVC060 17/17 A3008 RMK AO2 T01670167
KPSX 241205Z AUTO 05005KT 3SM BR BKN021 BKN035 OVC060 16/16 A3008 RMK AO2 T01610161
KPSX 241159Z AUTO 06004KT 1 3/4SM BR BKN021 OVC060 16/16 A3008 RMK AO2 T01560156
KPSX 241141Z AUTO 05005KT 2 1/2SM BR BKN022 BKN060 16/16 A3007 RMK AO2 T01610161
KPSX 241053Z AUTO 08003KT 6SM BR FEW009 SCT024 17/17 A3006 RMK AO2 SLP180 T01670167
KPSX 241022Z AUTO 05003KT 6SM BR FEW009 BKN019 17/17 A3006 RMK AO2 T01670167
KPSX 240953Z AUTO 07004KT 7SM OVC009 17/17 A3005 RMK AO2 SLP177 T01720172
KPSX 240921Z AUTO 01004KT 6SM BR BKN009 OVC018 17/17 A3006 RMK AO2 T01720172
KPSX 240910Z AUTO 01004KT 7SM BKN010 BKN018 OVC055 18/18 A3006 RMK AO2 T01780178
KPSX 240900Z AUTO 00000KT 8SM SCT010 BKN018 BKN055 19/18 A3006 RMK AO2 T01890183
KPSX 240853Z AUTO 08003KT 8SM FEW010 SCT019 19/18 A3006 RMK AO2 SLP179 T01890183 55010
KPSX 240753Z AUTO 13007KT 8SM CLR 19/19 A3006 RMK AO2 SLP178 T01890189
KPSX 240653Z AUTO 13008KT 9SM CLR 19/19 A3006 RMK AO2 SLP180 T01940189
KPSX 240553Z AUTO 13006KT 10SM CLR 19/19 A3009 RMK AO2 SLP189 T01940189 10217 20194 402440183 50004
KPSX 240453Z AUTO 14008KT 10SM CLR 20/19 A3010 RMK AO2 SLP191 T02000189
KPSX 240353Z AUTO 13012KT 10SM CLR 20/18 A3009 RMK AO2 SLP187 T02000183
KPSX 240253Z AUTO 13013KT 10SM CLR 21/18 A3008 RMK AO2 SLP185 T02060183 55001
KPSX 240153Z AUTO 13015KT 10SM CLR 21/18 A3007 RMK AO2 SLP181 T02060183
KPSX 240053Z AUTO 12011KT 10SM OVC029 21/18 A3009 RMK AO2 SLP188 T02110183
KPSX 240035Z AUTO 12012KT 10SM BKN029 OVC036 22/18 A3009 RMK AO2 T02170183
KPSX 232353Z AUTO 13015KT 10SM OVC032 22/18 A3008 RMK AO2 SLP186 T02170178 10244 20217 51002
KPSX 232253Z AUTO 13016KT 10SM OVC033 22/18 A3008 RMK AO2 SLP186 T02220178
KPSX 232153Z AUTO 13014G24KT 10SM BKN032 OVC080 23/18 A3008 RMK AO2 SLP184 T02280178
KPSX 232053Z AUTO 13018KT 10SM FEW026 OVC032 24/18 A3008 RMK AO2 SLP184 T02390178 58017
KPSX 231953Z AUTO 13016KT 10SM SCT022 SCT030 OVC090 24/18 A3009 RMK AO2 SLP190 T02390178
KPSX 231853Z AUTO 13017KT 10SM FEW023 FEW029 OVC090 24/18 A3011 RMK AO2 SLP197 T02390183
KPSX 231753Z AUTO 14016KT 10SM FEW022 OVC095 24/18 A3012 RMK AO2 SLP200 T02390183 10244 20194 50002
KPSX 231653Z AUTO 14016KT 10SM OVC095 23/18 A3014 RMK AO2 SLP205 T02280183
KPSX 231553Z AUTO 13012KT 10SM OVC085 22/18 A3014 RMK AO2 SLP204 T02170178
KPSX 231453Z AUTO 13010KT 10SM OVC080 21/18 A3012 RMK AO2 SLP199 T02110178 51021
KPSX 231353Z AUTO 13009KT 10SM OVC080 21/18 A3010 RMK AO2 SLP191 T02060178
KPSX 231253Z AUTO 14006KT 10SM OVC075 19/18 A3009 RMK AO2 SLP187 T01940178
KPSX 231153Z AUTO 13009KT 10SM OVC075 19/18 A3006 RMK AO2 SLP178 T01940178 10194 20183 53001
KPSX 231053Z AUTO 14010KT 10SM BKN080 19/17 A3004 RMK AO2 SLP172 T01890172
KPSX 230953Z AUTO 16007KT 10SM CLR 19/17 A3005 RMK AO2 SLP174 T01890172